sensor_id;sensor_type;location;lat;lon;timestamp;pressure;altitude;pressure_sealevel;temperature
20092;BMP180;10205;49.678;6.560;2024-03-02T00:01:36;98476.00;;;13.10
20092;BMP180;10205;49.678;6.560;2024-03-02T00:04:04;98468.00;;;13.00
20092;BMP180;10205;49.678;6.560;2024-03-02T00:06:32;98472.00;;;13.10
20092;BMP180;10205;49.678;6.560;2024-03-02T00:09:00;98464.00;;;13.00
20092;BMP180;10205;49.678;6.560;2024-03-02T00:11:27;98470.00;;;13.00
20092;BMP180;10205;49.678;6.560;2024-03-02T00:13:55;98472.00;;;13.00
20092;BMP180;10205;49.678;6.560;2024-03-02T00:16:23;98472.00;;;13.00
20092;BMP180;10205;49.678;6.560;2024-03-02T00:18:51;98466.00;;;13.00
20092;BMP180;10205;49.678;6.560;2024-03-02T00:21:18;98474.00;;;12.90
20092;BMP180;10205;49.678;6.560;2024-03-02T00:23:49;98477.00;;;12.90
20092;BMP180;10205;49.678;6.560;2024-03-02T00:26:17;98477.00;;;12.90
20092;BMP180;10205;49.678;6.560;2024-03-02T00:28:44;98467.00;;;12.90
20092;BMP180;10205;49.678;6.560;2024-03-02T00:31:13;98473.00;;;12.90
20092;BMP180;10205;49.678;6.560;2024-03-02T00:33:43;98470.00;;;12.90
20092;BMP180;10205;49.678;6.560;2024-03-02T00:36:12;98472.00;;;12.90
20092;BMP180;10205;49.678;6.560;2024-03-02T00:38:48;98467.00;;;12.90
20092;BMP180;10205;49.678;6.560;2024-03-02T00:41:20;98477.00;;;12.90
20092;BMP180;10205;49.678;6.560;2024-03-02T00:43:58;98470.00;;;12.90
20092;BMP180;10205;49.678;6.560;2024-03-02T00:46:29;98474.00;;;12.90
20092;BMP180;10205;49.678;6.560;2024-03-02T00:49:00;98469.00;;;12.90
20092;BMP180;10205;49.678;6.560;2024-03-02T00:51:29;98475.00;;;12.90
20092;BMP180;10205;49.678;6.560;2024-03-02T00:54:01;98477.00;;;12.90
20092;BMP180;10205;49.678;6.560;2024-03-02T00:56:30;98464.00;;;12.90
20092;BMP180;10205;49.678;6.560;2024-03-02T00:58:57;98466.00;;;12.90
20092;BMP180;10205;49.678;6.560;2024-03-02T01:01:26;98467.00;;;12.90
20092;BMP180;10205;49.678;6.560;2024-03-02T01:03:53;98471.00;;;12.80
20092;BMP180;10205;49.678;6.560;2024-03-02T01:06:23;98474.00;;;12.80
20092;BMP180;10205;49.678;6.560;2024-03-02T01:08:50;98462.00;;;12.80
20092;BMP180;10205;49.678;6.560;2024-03-02T01:11:18;98456.00;;;12.80
20092;BMP180;10205;49.678;6.560;2024-03-02T01:13:47;98460.00;;;12.80
20092;BMP180;10205;49.678;6.560;2024-03-02T01:16:15;98459.00;;;12.80
20092;BMP180;10205;49.678;6.560;2024-03-02T01:18:44;98463.00;;;12.80
20092;BMP180;10205;49.678;6.560;2024-03-02T01:21:11;98450.00;;;12.80
20092;BMP180;10205;49.678;6.560;2024-03-02T01:23:38;98451.00;;;12.80
20092;BMP180;10205;49.678;6.560;2024-03-02T01:26:05;98469.00;;;12.80
20092;BMP180;10205;49.678;6.560;2024-03-02T01:28:33;98456.00;;;12.80
20092;BMP180;10205;49.678;6.560;2024-03-02T01:31:00;98466.00;;;12.80
20092;BMP180;10205;49.678;6.560;2024-03-02T01:33:28;98450.00;;;12.80
20092;BMP180;10205;49.678;6.560;2024-03-02T01:35:56;98460.00;;;12.80
20092;BMP180;10205;49.678;6.560;2024-03-02T01:38:23;98459.00;;;12.80
20092;BMP180;10205;49.678;6.560;2024-03-02T01:40:50;98461.00;;;12.80
20092;BMP180;10205;49.678;6.560;2024-03-02T01:43:17;98467.00;;;12.80
20092;BMP180;10205;49.678;6.560;2024-03-02T01:45:44;98462.00;;;12.80
20092;BMP180;10205;49.678;6.560;2024-03-02T01:48:11;98459.00;;;12.70
20092;BMP180;10205;49.678;6.560;2024-03-02T01:50:39;98457.00;;;12.70
20092;BMP180;10205;49.678;6.560;2024-03-02T01:53:09;98471.00;;;12.70
20092;BMP180;10205;49.678;6.560;2024-03-02T01:55:36;98460.00;;;12.70
20092;BMP180;10205;49.678;6.560;2024-03-02T01:58:03;98460.00;;;12.70
20092;BMP180;10205;49.678;6.560;2024-03-02T02:00:30;98465.00;;;12.70
20092;BMP180;10205;49.678;6.560;2024-03-02T02:02:58;98461.00;;;12.70
20092;BMP180;10205;49.678;6.560;2024-03-02T02:05:25;98465.00;;;12.70
20092;BMP180;10205;49.678;6.560;2024-03-02T02:07:52;98469.00;;;12.70
20092;BMP180;10205;49.678;6.560;2024-03-02T02:10:21;98468.00;;;12.70
20092;BMP180;10205;49.678;6.560;2024-03-02T02:12:48;98475.00;;;12.70
20092;BMP180;10205;49.678;6.560;2024-03-02T02:15:25;98479.00;;;12.70
20092;BMP180;10205;49.678;6.560;2024-03-02T02:17:53;98477.00;;;12.70
20092;BMP180;10205;49.678;6.560;2024-03-02T02:20:20;98480.00;;;12.60
20092;BMP180;10205;49.678;6.560;2024-03-02T02:22:58;98479.00;;;12.70
20092;BMP180;10205;49.678;6.560;2024-03-02T02:25:26;98471.00;;;12.70
20092;BMP180;10205;49.678;6.560;2024-03-02T02:27:54;98475.00;;;12.70
20092;BMP180;10205;49.678;6.560;2024-03-02T02:30:24;98474.00;;;12.70
20092;BMP180;10205;49.678;6.560;2024-03-02T02:32:51;98471.00;;;12.70
20092;BMP180;10205;49.678;6.560;2024-03-02T02:35:19;98467.00;;;12.70
20092;BMP180;10205;49.678;6.560;2024-03-02T02:37:47;98473.00;;;12.70
20092;BMP180;10205;49.678;6.560;2024-03-02T02:40:17;98467.00;;;12.70
20092;BMP180;10205;49.678;6.560;2024-03-02T02:42:45;98467.00;;;12.70
20092;BMP180;10205;49.678;6.560;2024-03-02T02:45:12;98466.00;;;12.70
20092;BMP180;10205;49.678;6.560;2024-03-02T02:47:40;98456.00;;;12.70
20092;BMP180;10205;49.678;6.560;2024-03-02T02:50:09;98469.00;;;12.70
20092;BMP180;10205;49.678;6.560;2024-03-02T02:52:39;98472.00;;;12.70
20092;BMP180;10205;49.678;6.560;2024-03-02T02:55:08;98477.00;;;12.70
20092;BMP180;10205;49.678;6.560;2024-03-02T02:57:39;98469.00;;;12.70
20092;BMP180;10205;49.678;6.560;2024-03-02T03:00:10;98477.00;;;12.70
20092;BMP180;10205;49.678;6.560;2024-03-02T03:02:39;98465.00;;;12.70
20092;BMP180;10205;49.678;6.560;2024-03-02T03:05:08;98460.00;;;12.60
20092;BMP180;10205;49.678;6.560;2024-03-02T03:07:36;98459.00;;;12.70
20092;BMP180;10205;49.678;6.560;2024-03-02T03:10:05;98465.00;;;12.70
20092;BMP180;10205;49.678;6.560;2024-03-02T03:12:33;98471.00;;;12.70
20092;BMP180;10205;49.678;6.560;2024-03-02T03:15:03;98481.00;;;12.70
20092;BMP180;10205;49.678;6.560;2024-03-02T03:17:32;98483.00;;;12.70
20092;BMP180;10205;49.678;6.560;2024-03-02T03:19:59;98468.00;;;12.70
20092;BMP180;10205;49.678;6.560;2024-03-02T03:22:28;98468.00;;;12.70
20092;BMP180;10205;49.678;6.560;2024-03-02T03:24:55;98470.00;;;12.70
20092;BMP180;10205;49.678;6.560;2024-03-02T03:27:22;98476.00;;;12.70
20092;BMP180;10205;49.678;6.560;2024-03-02T03:29:49;98479.00;;;12.60
20092;BMP180;10205;49.678;6.560;2024-03-02T03:32:17;98479.00;;;12.60
20092;BMP180;10205;49.678;6.560;2024-03-02T03:34:44;98483.00;;;12.60
20092;BMP180;10205;49.678;6.560;2024-03-02T03:37:11;98478.00;;;12.60
20092;BMP180;10205;49.678;6.560;2024-03-02T03:39:38;98483.00;;;12.60
20092;BMP180;10205;49.678;6.560;2024-03-02T03:42:06;98485.00;;;12.60
20092;BMP180;10205;49.678;6.560;2024-03-02T03:44:33;98490.00;;;12.60
20092;BMP180;10205;49.678;6.560;2024-03-02T03:47:00;98494.00;;;12.60
20092;BMP180;10205;49.678;6.560;2024-03-02T03:49:29;98490.00;;;12.60
20092;BMP180;10205;49.678;6.560;2024-03-02T03:51:56;98491.00;;;12.60
20092;BMP180;10205;49.678;6.560;2024-03-02T03:54:23;98497.00;;;12.60
20092;BMP180;10205;49.678;6.560;2024-03-02T03:56:50;98497.00;;;12.60
20092;BMP180;10205;49.678;6.560;2024-03-02T03:59:18;98503.00;;;12.60
20092;BMP180;10205;49.678;6.560;2024-03-02T04:01:45;98495.00;;;12.60
20092;BMP180;10205;49.678;6.560;2024-03-02T04:04:12;98506.00;;;12.60
20092;BMP180;10205;49.678;6.560;2024-03-02T04:06:40;98515.00;;;12.60
20092;BMP180;10205;49.678;6.560;2024-03-02T04:09:07;98510.00;;;12.60
20092;BMP180;10205;49.678;6.560;2024-03-02T04:11:34;98508.00;;;12.60
20092;BMP180;10205;49.678;6.560;2024-03-02T04:14:02;98508.00;;;12.50
20092;BMP180;10205;49.678;6.560;2024-03-02T04:16:29;98517.00;;;12.50
20092;BMP180;10205;49.678;6.560;2024-03-02T04:18:56;98518.00;;;12.50
20092;BMP180;10205;49.678;6.560;2024-03-02T04:21:23;98519.00;;;12.50
20092;BMP180;10205;49.678;6.560;2024-03-02T04:23:52;98519.00;;;12.50
20092;BMP180;10205;49.678;6.560;2024-03-02T04:26:23;98515.00;;;12.50
20092;BMP180;10205;49.678;6.560;2024-03-02T04:28:51;98520.00;;;12.50
20092;BMP180;10205;49.678;6.560;2024-03-02T04:31:18;98511.00;;;12.50
20092;BMP180;10205;49.678;6.560;2024-03-02T04:33:45;98513.00;;;12.50
20092;BMP180;10205;49.678;6.560;2024-03-02T04:36:12;98509.00;;;12.50
20092;BMP180;10205;49.678;6.560;2024-03-02T04:38:39;98523.00;;;12.50
20092;BMP180;10205;49.678;6.560;2024-03-02T04:41:08;98539.00;;;12.50
20092;BMP180;10205;49.678;6.560;2024-03-02T04:43:35;98543.00;;;12.50
20092;BMP180;10205;49.678;6.560;2024-03-02T04:46:02;98535.00;;;12.50
20092;BMP180;10205;49.678;6.560;2024-03-02T04:48:29;98528.00;;;12.50
20092;BMP180;10205;49.678;6.560;2024-03-02T04:50:56;98523.00;;;12.50
20092;BMP180;10205;49.678;6.560;2024-03-02T04:53:23;98520.00;;;12.50
20092;BMP180;10205;49.678;6.560;2024-03-02T04:55:50;98530.00;;;12.50
20092;BMP180;10205;49.678;6.560;2024-03-02T04:58:47;98526.00;;;12.50
20092;BMP180;10205;49.678;6.560;2024-03-02T05:01:14;98530.00;;;12.50
20092;BMP180;10205;49.678;6.560;2024-03-02T05:03:43;98527.00;;;12.50
20092;BMP180;10205;49.678;6.560;2024-03-02T05:06:10;98528.00;;;12.50
20092;BMP180;10205;49.678;6.560;2024-03-02T05:08:38;98535.00;;;12.50
20092;BMP180;10205;49.678;6.560;2024-03-02T05:11:05;98542.00;;;12.50
20092;BMP180;10205;49.678;6.560;2024-03-02T05:13:47;98543.00;;;12.50
20092;BMP180;10205;49.678;6.560;2024-03-02T05:16:14;98529.00;;;12.40
20092;BMP180;10205;49.678;6.560;2024-03-02T05:18:41;98520.00;;;12.40
20092;BMP180;10205;49.678;6.560;2024-03-02T05:21:08;98518.00;;;12.40
20092;BMP180;10205;49.678;6.560;2024-03-02T05:23:35;98525.00;;;12.40
20092;BMP180;10205;49.678;6.560;2024-03-02T05:26:03;98524.00;;;12.40
20092;BMP180;10205;49.678;6.560;2024-03-02T05:28:30;98531.00;;;12.40
20092;BMP180;10205;49.678;6.560;2024-03-02T05:30:58;98541.00;;;12.40
20092;BMP180;10205;49.678;6.560;2024-03-02T05:33:25;98537.00;;;12.40
20092;BMP180;10205;49.678;6.560;2024-03-02T05:35:52;98538.00;;;12.40
20092;BMP180;10205;49.678;6.560;2024-03-02T05:38:19;98537.00;;;12.40
20092;BMP180;10205;49.678;6.560;2024-03-02T05:40:47;98528.00;;;12.50
20092;BMP180;10205;49.678;6.560;2024-03-02T05:43:14;98539.00;;;12.40
20092;BMP180;10205;49.678;6.560;2024-03-02T05:45:42;98529.00;;;12.40
20092;BMP180;10205;49.678;6.560;2024-03-02T05:48:10;98522.00;;;12.40
20092;BMP180;10205;49.678;6.560;2024-03-02T05:50:37;98534.00;;;12.40
20092;BMP180;10205;49.678;6.560;2024-03-02T05:53:04;98524.00;;;12.40
20092;BMP180;10205;49.678;6.560;2024-03-02T05:55:31;98524.00;;;12.40
20092;BMP180;10205;49.678;6.560;2024-03-02T05:57:58;98528.00;;;12.40
20092;BMP180;10205;49.678;6.560;2024-03-02T06:00:41;98527.00;;;12.30
20092;BMP180;10205;49.678;6.560;2024-03-02T06:03:09;98523.00;;;12.40
20092;BMP180;10205;49.678;6.560;2024-03-02T06:05:36;98529.00;;;12.40
20092;BMP180;10205;49.678;6.560;2024-03-02T06:08:04;98525.00;;;12.40
20092;BMP180;10205;49.678;6.560;2024-03-02T06:10:31;98521.00;;;12.40
20092;BMP180;10205;49.678;6.560;2024-03-02T06:12:58;98522.00;;;12.40
20092;BMP180;10205;49.678;6.560;2024-03-02T06:15:25;98537.00;;;12.40
20092;BMP180;10205;49.678;6.560;2024-03-02T06:17:52;98531.00;;;12.40
20092;BMP180;10205;49.678;6.560;2024-03-02T06:20:20;98535.00;;;12.40
20092;BMP180;10205;49.678;6.560;2024-03-02T06:22:47;98530.00;;;12.40
20092;BMP180;10205;49.678;6.560;2024-03-02T06:25:14;98537.00;;;12.40
20092;BMP180;10205;49.678;6.560;2024-03-02T06:27:41;98541.00;;;12.50
20092;BMP180;10205;49.678;6.560;2024-03-02T06:30:10;98540.00;;;12.50
20092;BMP180;10205;49.678;6.560;2024-03-02T06:32:38;98542.00;;;12.50
20092;BMP180;10205;49.678;6.560;2024-03-02T06:35:05;98548.00;;;12.50
20092;BMP180;10205;49.678;6.560;2024-03-02T06:37:38;98542.00;;;12.50
20092;BMP180;10205;49.678;6.560;2024-03-02T06:40:07;98546.00;;;12.50
20092;BMP180;10205;49.678;6.560;2024-03-02T06:42:34;98544.00;;;12.50
20092;BMP180;10205;49.678;6.560;2024-03-02T06:45:02;98551.00;;;12.50
20092;BMP180;10205;49.678;6.560;2024-03-02T06:47:29;98560.00;;;12.40
20092;BMP180;10205;49.678;6.560;2024-03-02T06:49:57;98558.00;;;12.40
20092;BMP180;10205;49.678;6.560;2024-03-02T06:52:24;98553.00;;;12.40
20092;BMP180;10205;49.678;6.560;2024-03-02T06:54:53;98544.00;;;12.40
20092;BMP180;10205;49.678;6.560;2024-03-02T06:57:21;98556.00;;;12.40
20092;BMP180;10205;49.678;6.560;2024-03-02T06:59:50;98546.00;;;12.40
20092;BMP180;10205;49.678;6.560;2024-03-02T07:02:19;98552.00;;;12.40
20092;BMP180;10205;49.678;6.560;2024-03-02T07:04:47;98555.00;;;12.30
20092;BMP180;10205;49.678;6.560;2024-03-02T07:07:14;98555.00;;;12.30
20092;BMP180;10205;49.678;6.560;2024-03-02T07:09:41;98567.00;;;12.30
20092;BMP180;10205;49.678;6.560;2024-03-02T07:12:10;98580.00;;;12.30
20092;BMP180;10205;49.678;6.560;2024-03-02T07:14:37;98571.00;;;12.30
20092;BMP180;10205;49.678;6.560;2024-03-02T07:17:18;98562.00;;;12.30
20092;BMP180;10205;49.678;6.560;2024-03-02T07:19:45;98565.00;;;12.20
20092;BMP180;10205;49.678;6.560;2024-03-02T07:22:12;98568.00;;;12.30
20092;BMP180;10205;49.678;6.560;2024-03-02T07:24:43;98571.00;;;12.30
20092;BMP180;10205;49.678;6.560;2024-03-02T07:27:13;98577.00;;;12.30
20092;BMP180;10205;49.678;6.560;2024-03-02T07:29:40;98573.00;;;12.30
20092;BMP180;10205;49.678;6.560;2024-03-02T07:32:09;98573.00;;;12.30
20092;BMP180;10205;49.678;6.560;2024-03-02T07:34:36;98579.00;;;12.30
20092;BMP180;10205;49.678;6.560;2024-03-02T07:37:04;98579.00;;;12.30
20092;BMP180;10205;49.678;6.560;2024-03-02T07:39:31;98574.00;;;12.30
20092;BMP180;10205;49.678;6.560;2024-03-02T07:42:00;98577.00;;;12.30
20092;BMP180;10205;49.678;6.560;2024-03-02T07:44:28;98576.00;;;12.30
20092;BMP180;10205;49.678;6.560;2024-03-02T07:46:55;98597.00;;;12.30
20092;BMP180;10205;49.678;6.560;2024-03-02T07:49:22;98586.00;;;12.30
20092;BMP180;10205;49.678;6.560;2024-03-02T07:51:49;98586.00;;;12.30
20092;BMP180;10205;49.678;6.560;2024-03-02T07:54:16;98582.00;;;12.40
20092;BMP180;10205;49.678;6.560;2024-03-02T07:56:44;98593.00;;;12.40
20092;BMP180;10205;49.678;6.560;2024-03-02T07:59:12;98584.00;;;12.40
20092;BMP180;10205;49.678;6.560;2024-03-02T08:01:41;98573.00;;;12.40
20092;BMP180;10205;49.678;6.560;2024-03-02T08:04:08;98585.00;;;12.50
20092;BMP180;10205;49.678;6.560;2024-03-02T08:06:35;98592.00;;;12.50
20092;BMP180;10205;49.678;6.560;2024-03-02T08:09:03;98604.00;;;12.50
20092;BMP180;10205;49.678;6.560;2024-03-02T08:11:35;98599.00;;;12.50
20092;BMP180;10205;49.678;6.560;2024-03-02T08:14:02;98601.00;;;12.60
20092;BMP180;10205;49.678;6.560;2024-03-02T08:16:30;98597.00;;;12.60
20092;BMP180;10205;49.678;6.560;2024-03-02T08:18:59;98588.00;;;12.60
20092;BMP180;10205;49.678;6.560;2024-03-02T08:21:26;98584.00;;;12.60
20092;BMP180;10205;49.678;6.560;2024-03-02T08:23:56;98576.00;;;12.70
20092;BMP180;10205;49.678;6.560;2024-03-02T08:26:24;98584.00;;;12.70
20092;BMP180;10205;49.678;6.560;2024-03-02T08:28:51;98578.00;;;12.70
20092;BMP180;10205;49.678;6.560;2024-03-02T08:31:18;98576.00;;;12.70
20092;BMP180;10205;49.678;6.560;2024-03-02T08:33:45;98573.00;;;12.80
20092;BMP180;10205;49.678;6.560;2024-03-02T08:36:14;98575.00;;;12.80
20092;BMP180;10205;49.678;6.560;2024-03-02T08:38:44;98574.00;;;12.80
20092;BMP180;10205;49.678;6.560;2024-03-02T08:41:11;98580.00;;;12.90
20092;BMP180;10205;49.678;6.560;2024-03-02T08:43:42;98588.00;;;12.90
20092;BMP180;10205;49.678;6.560;2024-03-02T08:46:09;98589.00;;;12.90
20092;BMP180;10205;49.678;6.560;2024-03-02T08:48:36;98581.00;;;13.00
20092;BMP180;10205;49.678;6.560;2024-03-02T08:51:03;98577.00;;;13.00
20092;BMP180;10205;49.678;6.560;2024-03-02T08:53:34;98595.00;;;13.00
20092;BMP180;10205;49.678;6.560;2024-03-02T08:56:02;98592.00;;;13.10
20092;BMP180;10205;49.678;6.560;2024-03-02T08:58:31;98587.00;;;13.10
20092;BMP180;10205;49.678;6.560;2024-03-02T09:00:58;98604.00;;;13.10
20092;BMP180;10205;49.678;6.560;2024-03-02T09:03:25;98595.00;;;13.10
20092;BMP180;10205;49.678;6.560;2024-03-02T09:05:52;98589.00;;;13.20
20092;BMP180;10205;49.678;6.560;2024-03-02T09:08:19;98587.00;;;13.20
20092;BMP180;10205;49.678;6.560;2024-03-02T09:10:48;98607.00;;;13.20
20092;BMP180;10205;49.678;6.560;2024-03-02T09:13:15;98602.00;;;13.20
20092;BMP180;10205;49.678;6.560;2024-03-02T09:15:42;98606.00;;;13.20
20092;BMP180;10205;49.678;6.560;2024-03-02T09:18:10;98597.00;;;13.20
20092;BMP180;10205;49.678;6.560;2024-03-02T09:20:37;98598.00;;;13.20
20092;BMP180;10205;49.678;6.560;2024-03-02T09:23:04;98600.00;;;13.20
20092;BMP180;10205;49.678;6.560;2024-03-02T09:25:31;98608.00;;;13.20
20092;BMP180;10205;49.678;6.560;2024-03-02T09:27:59;98598.00;;;13.20
20092;BMP180;10205;49.678;6.560;2024-03-02T09:30:26;98595.00;;;13.30
20092;BMP180;10205;49.678;6.560;2024-03-02T09:32:53;98590.00;;;13.30
20092;BMP180;10205;49.678;6.560;2024-03-02T09:35:20;98594.00;;;13.30
20092;BMP180;10205;49.678;6.560;2024-03-02T09:37:47;98589.00;;;13.30
20092;BMP180;10205;49.678;6.560;2024-03-02T09:40:16;98590.00;;;13.30
20092;BMP180;10205;49.678;6.560;2024-03-02T09:42:45;98598.00;;;13.30
20092;BMP180;10205;49.678;6.560;2024-03-02T09:45:23;98592.00;;;13.40
20092;BMP180;10205;49.678;6.560;2024-03-02T09:47:51;98582.00;;;13.40
20092;BMP180;10205;49.678;6.560;2024-03-02T09:50:18;98581.00;;;13.40
20092;BMP180;10205;49.678;6.560;2024-03-02T09:52:49;98562.00;;;13.40
20092;BMP180;10205;49.678;6.560;2024-03-02T09:55:17;98557.00;;;13.50
20092;BMP180;10205;49.678;6.560;2024-03-02T09:57:45;98560.00;;;13.50
20092;BMP180;10205;49.678;6.560;2024-03-02T10:00:15;98551.00;;;13.50
20092;BMP180;10205;49.678;6.560;2024-03-02T10:02:44;98547.00;;;13.60
20092;BMP180;10205;49.678;6.560;2024-03-02T10:05:24;98544.00;;;13.60
20092;BMP180;10205;49.678;6.560;2024-03-02T10:07:59;98549.00;;;13.70
20092;BMP180;10205;49.678;6.560;2024-03-02T10:10:36;98545.00;;;13.70
20092;BMP180;10205;49.678;6.560;2024-03-02T10:13:06;98536.00;;;13.80
20092;BMP180;10205;49.678;6.560;2024-03-02T10:15:34;98538.00;;;13.80
20092;BMP180;10205;49.678;6.560;2024-03-02T10:18:04;98545.00;;;13.90
20092;BMP180;10205;49.678;6.560;2024-03-02T10:20:31;98547.00;;;13.90
20092;BMP180;10205;49.678;6.560;2024-03-02T10:23:10;98539.00;;;14.00
20092;BMP180;10205;49.678;6.560;2024-03-02T10:25:38;98539.00;;;14.10
20092;BMP180;10205;49.678;6.560;2024-03-02T10:28:06;98539.00;;;14.10
20092;BMP180;10205;49.678;6.560;2024-03-02T10:30:33;98540.00;;;14.20
20092;BMP180;10205;49.678;6.560;2024-03-02T10:33:02;98528.00;;;14.20
20092;BMP180;10205;49.678;6.560;2024-03-02T10:35:30;98544.00;;;14.30
20092;BMP180;10205;49.678;6.560;2024-03-02T10:37:59;98527.00;;;14.30
20092;BMP180;10205;49.678;6.560;2024-03-02T10:40:27;98518.00;;;14.40
20092;BMP180;10205;49.678;6.560;2024-03-02T10:42:55;98517.00;;;14.40
20092;BMP180;10205;49.678;6.560;2024-03-02T10:45:24;98515.00;;;14.50
20092;BMP180;10205;49.678;6.560;2024-03-02T10:47:51;98519.00;;;14.50
20092;BMP180;10205;49.678;6.560;2024-03-02T10:50:19;98514.00;;;14.60
20092;BMP180;10205;49.678;6.560;2024-03-02T10:52:47;98523.00;;;14.60
20092;BMP180;10205;49.678;6.560;2024-03-02T10:55:14;98516.00;;;14.70
20092;BMP180;10205;49.678;6.560;2024-03-02T10:57:52;98507.00;;;14.70
20092;BMP180;10205;49.678;6.560;2024-03-02T11:00:20;98510.00;;;14.70
20092;BMP180;10205;49.678;6.560;2024-03-02T11:02:56;98507.00;;;14.80
20092;BMP180;10205;49.678;6.560;2024-03-02T11:05:29;98510.00;;;14.80
20092;BMP180;10205;49.678;6.560;2024-03-02T11:08:02;98499.00;;;14.80
20092;BMP180;10205;49.678;6.560;2024-03-02T11:10:38;98498.00;;;14.80
20092;BMP180;10205;49.678;6.560;2024-03-02T11:13:09;98490.00;;;14.90
20092;BMP180;10205;49.678;6.560;2024-03-02T11:15:41;98486.00;;;14.90
20092;BMP180;10205;49.678;6.560;2024-03-02T11:18:11;98483.00;;;15.00
20092;BMP180;10205;49.678;6.560;2024-03-02T11:20:40;98486.00;;;15.10
20092;BMP180;10205;49.678;6.560;2024-03-02T11:23:09;98479.00;;;15.10
20092;BMP180;10205;49.678;6.560;2024-03-02T11:25:36;98471.00;;;15.10
20092;BMP180;10205;49.678;6.560;2024-03-02T11:28:06;98470.00;;;15.10
20092;BMP180;10205;49.678;6.560;2024-03-02T11:30:51;98465.00;;;15.20
20092;BMP180;10205;49.678;6.560;2024-03-02T11:33:26;98460.00;;;15.20
20092;BMP180;10205;49.678;6.560;2024-03-02T11:35:57;98463.00;;;15.30
20092;BMP180;10205;49.678;6.560;2024-03-02T11:38:36;98473.00;;;15.30
20092;BMP180;10205;49.678;6.560;2024-03-02T11:41:06;98452.00;;;15.40
20092;BMP180;10205;49.678;6.560;2024-03-02T11:43:38;98445.00;;;15.40
20092;BMP180;10205;49.678;6.560;2024-03-02T11:46:06;98447.00;;;15.50
20092;BMP180;10205;49.678;6.560;2024-03-02T11:48:36;98447.00;;;15.50
20092;BMP180;10205;49.678;6.560;2024-03-02T11:51:05;98441.00;;;15.60
20092;BMP180;10205;49.678;6.560;2024-03-02T11:53:35;98436.00;;;15.60
20092;BMP180;10205;49.678;6.560;2024-03-02T11:56:06;98428.00;;;15.60
20092;BMP180;10205;49.678;6.560;2024-03-02T11:58:37;98421.00;;;15.70
20092;BMP180;10205;49.678;6.560;2024-03-02T12:01:04;98419.00;;;15.70
20092;BMP180;10205;49.678;6.560;2024-03-02T12:03:34;98408.00;;;15.80
20092;BMP180;10205;49.678;6.560;2024-03-02T12:06:02;98399.00;;;15.80
20092;BMP180;10205;49.678;6.560;2024-03-02T12:08:31;98408.00;;;15.90
20092;BMP180;10205;49.678;6.560;2024-03-02T12:11:01;98406.00;;;16.00
20092;BMP180;10205;49.678;6.560;2024-03-02T12:13:28;98397.00;;;16.00
20092;BMP180;10205;49.678;6.560;2024-03-02T12:15:56;98401.00;;;16.10
20092;BMP180;10205;49.678;6.560;2024-03-02T12:18:23;98402.00;;;16.10
20092;BMP180;10205;49.678;6.560;2024-03-02T12:20:50;98405.00;;;16.20
20092;BMP180;10205;49.678;6.560;2024-03-02T12:23:22;98399.00;;;16.20
20092;BMP180;10205;49.678;6.560;2024-03-02T12:25:51;98403.00;;;16.30
20092;BMP180;10205;49.678;6.560;2024-03-02T12:28:19;98409.00;;;16.30
20092;BMP180;10205;49.678;6.560;2024-03-02T12:30:46;98402.00;;;16.30
20092;BMP180;10205;49.678;6.560;2024-03-02T12:33:14;98399.00;;;16.40
20092;BMP180;10205;49.678;6.560;2024-03-02T12:35:41;98403.00;;;16.40
20092;BMP180;10205;49.678;6.560;2024-03-02T12:38:09;98400.00;;;16.40
20092;BMP180;10205;49.678;6.560;2024-03-02T12:40:36;98388.00;;;16.50
20092;BMP180;10205;49.678;6.560;2024-03-02T12:43:05;98398.00;;;16.50
20092;BMP180;10205;49.678;6.560;2024-03-02T12:45:34;98387.00;;;16.60
20092;BMP180;10205;49.678;6.560;2024-03-02T12:48:01;98379.00;;;16.60
20092;BMP180;10205;49.678;6.560;2024-03-02T12:50:28;98379.00;;;16.60
20092;BMP180;10205;49.678;6.560;2024-03-02T12:52:56;98389.00;;;16.60
20092;BMP180;10205;49.678;6.560;2024-03-02T12:55:24;98375.00;;;16.70
20092;BMP180;10205;49.678;6.560;2024-03-02T12:57:52;98376.00;;;16.70
20092;BMP180;10205;49.678;6.560;2024-03-02T13:00:22;98361.00;;;16.70
20092;BMP180;10205;49.678;6.560;2024-03-02T13:02:50;98369.00;;;16.80
20092;BMP180;10205;49.678;6.560;2024-03-02T13:05:17;98364.00;;;16.80
20092;BMP180;10205;49.678;6.560;2024-03-02T13:07:47;98357.00;;;16.80
20092;BMP180;10205;49.678;6.560;2024-03-02T13:10:14;98367.00;;;16.80
20092;BMP180;10205;49.678;6.560;2024-03-02T13:12:41;98369.00;;;16.80
20092;BMP180;10205;49.678;6.560;2024-03-02T13:15:09;98363.00;;;16.80
20092;BMP180;10205;49.678;6.560;2024-03-02T13:17:38;98362.00;;;16.90
20092;BMP180;10205;49.678;6.560;2024-03-02T13:20:07;98368.00;;;16.90
20092;BMP180;10205;49.678;6.560;2024-03-02T13:22:36;98344.00;;;16.90
20092;BMP180;10205;49.678;6.560;2024-03-02T13:25:04;98353.00;;;16.90
20092;BMP180;10205;49.678;6.560;2024-03-02T13:27:32;98343.00;;;17.00
20092;BMP180;10205;49.678;6.560;2024-03-02T13:29:59;98340.00;;;17.00
20092;BMP180;10205;49.678;6.560;2024-03-02T13:32:26;98348.00;;;17.00
20092;BMP180;10205;49.678;6.560;2024-03-02T13:34:55;98343.00;;;17.10
20092;BMP180;10205;49.678;6.560;2024-03-02T13:37:22;98346.00;;;17.10
20092;BMP180;10205;49.678;6.560;2024-03-02T13:39:49;98338.00;;;17.10
20092;BMP180;10205;49.678;6.560;2024-03-02T13:42:16;98336.00;;;17.10
20092;BMP180;10205;49.678;6.560;2024-03-02T13:44:44;98341.00;;;17.20
20092;BMP180;10205;49.678;6.560;2024-03-02T13:47:14;98351.00;;;17.20
20092;BMP180;10205;49.678;6.560;2024-03-02T13:49:41;98343.00;;;17.20
20092;BMP180;10205;49.678;6.560;2024-03-02T13:52:12;98351.00;;;17.20
20092;BMP180;10205;49.678;6.560;2024-03-02T13:54:39;98348.00;;;17.20
20092;BMP180;10205;49.678;6.560;2024-03-02T13:57:09;98332.00;;;17.20
20092;BMP180;10205;49.678;6.560;2024-03-02T13:59:36;98340.00;;;17.20
20092;BMP180;10205;49.678;6.560;2024-03-02T14:02:05;98336.00;;;17.20
20092;BMP180;10205;49.678;6.560;2024-03-02T14:04:33;98341.00;;;17.20
20092;BMP180;10205;49.678;6.560;2024-03-02T14:07:01;98338.00;;;17.20
20092;BMP180;10205;49.678;6.560;2024-03-02T14:09:30;98343.00;;;17.20
20092;BMP180;10205;49.678;6.560;2024-03-02T14:11:57;98342.00;;;17.20
20092;BMP180;10205;49.678;6.560;2024-03-02T14:14:26;98340.00;;;17.30
20092;BMP180;10205;49.678;6.560;2024-03-02T14:16:54;98336.00;;;17.30